Terminal Aerodrome Forecast
Issued by NWS

Home | Current Version | Previous Version | Text Only | Print | Product List | Glossary On
Versions: 1 2 3 4 5 6 7 8 9 10 11 12 13 14 15 16 17
000
FTPA31 PHFO 241120
TAFHKO
TAF
PHKO 241120Z 2412/2512 12006KT P6SM SCT030 BKN060
     FM242000 21010KT P6SM FEW035 SCT060
     FM250500 12006KT P6SM SCT030 BKN060=

USA.gov is the U.S. government's official web portal to all federal, state and local government web resources and services.